createdAt,value
2018-02-18T00:01:26.302Z,62.40
2018-02-18T00:03:54.546Z,62.50
2018-02-18T00:06:22.765Z,62.60
2018-02-18T00:08:51.771Z,62.80
2018-02-18T00:11:20.011Z,62.70
2018-02-18T00:13:52.748Z,62.70
2018-02-18T00:16:20.991Z,62.50
2018-02-18T00:18:49.998Z,62.50
2018-02-18T00:21:18.244Z,62.40
2018-02-18T00:23:46.551Z,62.40
2018-02-18T00:26:14.846Z,62.40
2018-02-18T00:28:43.080Z,62.40
2018-02-18T00:31:12.088Z,62.50
2018-02-18T00:33:41.083Z,62.50
2018-02-18T00:36:10.104Z,62.40
2018-02-18T00:38:38.326Z,62.40
2018-02-18T00:41:06.578Z,62.30
2018-02-18T00:43:35.568Z,62.10
2018-02-18T00:46:03.819Z,62.00
2018-02-18T00:48:32.034Z,62.10
2018-02-18T00:51:00.280Z,62.40
2018-02-18T00:53:28.514Z,62.50
2018-02-18T00:55:57.533Z,62.40
2018-02-18T00:58:25.774Z,62.20
2018-02-18T01:00:54.012Z,62.00
2018-02-18T01:03:22.252Z,61.80
2018-02-18T01:05:51.251Z,61.80
2018-02-18T01:08:19.490Z,61.70
2018-02-18T01:10:47.699Z,61.60
2018-02-18T01:13:15.963Z,61.50
2018-02-18T01:15:44.970Z,61.70
2018-02-18T01:18:13.246Z,61.70
2018-02-18T01:20:41.478Z,61.60
2018-02-18T01:23:09.706Z,61.70
2018-02-18T01:25:37.938Z,61.70
2018-02-18T01:28:06.149Z,61.80
2018-02-18T01:30:34.394Z,61.80
2018-02-18T01:33:02.708Z,62.00
2018-02-18T01:35:30.980Z,62.10
2018-02-18T01:37:59.271Z,62.20
2018-02-18T01:40:27.457Z,62.30
2018-02-18T01:42:55.681Z,62.10
2018-02-18T01:45:23.924Z,62.00
2018-02-18T01:47:52.260Z,61.90
2018-02-18T01:50:32.358Z,61.70
2018-02-18T01:53:00.621Z,62.00
2018-02-18T01:55:28.864Z,62.10
2018-02-18T01:57:57.149Z,62.50
2018-02-18T02:00:25.424Z,62.70
2018-02-18T02:02:53.689Z,62.70
2018-02-18T02:05:22.697Z,62.30
2018-02-18T02:07:50.945Z,62.30
2018-02-18T02:10:19.248Z,62.10
2018-02-18T02:12:47.656Z,62.10
2018-02-18T02:15:15.866Z,62.20
2018-02-18T02:20:40.114Z,62.50
2018-02-18T02:23:08.327Z,62.80
2018-02-18T02:25:36.594Z,62.80
2018-02-18T02:28:04.818Z,62.70
2018-02-18T02:30:33.797Z,63.10
2018-02-18T02:33:02.817Z,63.70
2018-02-18T02:35:31.061Z,63.20
2018-02-18T02:37:59.302Z,63.20
2018-02-18T02:40:27.531Z,63.20
2018-02-18T02:42:56.534Z,62.90
2018-02-18T02:45:24.823Z,62.80
2018-02-18T02:47:53.088Z,62.70
2018-02-18T02:50:22.081Z,62.90
2018-02-18T02:52:51.071Z,63.20
2018-02-18T02:55:20.055Z,63.40
2018-02-18T02:57:49.171Z,63.20
2018-02-18T03:00:17.390Z,63.10
2018-02-18T03:02:45.627Z,63.10
2018-02-18T03:05:13.890Z,63.20
2018-02-18T03:07:42.136Z,63.40
2018-02-18T03:10:10.362Z,63.50
2018-02-18T03:12:38.574Z,63.80
2018-02-18T03:15:06.827Z,63.60
2018-02-18T03:17:35.078Z,63.40
2018-02-18T03:20:03.299Z,63.20
2018-02-18T03:22:31.538Z,63.50
2018-02-18T03:24:59.811Z,63.70
2018-02-18T03:27:28.072Z,63.70
2018-02-18T03:29:56.292Z,63.50
2018-02-18T03:32:24.508Z,63.20
2018-02-18T03:34:53.508Z,63.40
2018-02-18T03:37:22.497Z,63.40
2018-02-18T03:39:51.547Z,63.20
2018-02-18T03:42:19.822Z,63.10
2018-02-18T03:44:48.057Z,63.10
2018-02-18T03:47:16.307Z,63.20
2018-02-18T03:49:44.512Z,63.50
2018-02-18T03:52:12.738Z,63.80
2018-02-18T03:54:40.966Z,63.90
2018-02-18T03:57:09.223Z,64.10
2018-02-18T03:59:38.210Z,64.10
2018-02-18T04:02:06.437Z,64.00
2018-02-18T04:04:34.699Z,63.80
2018-02-18T04:07:02.935Z,63.70
2018-02-18T04:09:31.946Z,63.90
2018-02-18T04:12:00.945Z,63.50
2018-02-18T04:14:29.946Z,63.80
2018-02-18T04:16:58.225Z,63.70
2018-02-18T04:19:26.455Z,64.00
2018-02-18T04:21:54.774Z,64.10
2018-02-18T04:24:23.029Z,63.90
2018-02-18T04:26:51.338Z,63.80
2018-02-18T04:29:19.571Z,63.80
2018-02-18T04:31:48.602Z,64.20
2018-02-18T04:34:16.824Z,64.10
2018-02-18T04:36:45.150Z,64.20
2018-02-18T04:39:13.376Z,64.10
2018-02-18T04:41:41.588Z,64.10
2018-02-18T04:44:09.842Z,63.90
2018-02-18T04:46:38.094Z,63.80
2018-02-18T04:49:06.421Z,63.70
2018-02-18T04:51:34.711Z,63.70
2018-02-18T04:54:02.999Z,64.20
2018-02-18T04:56:31.278Z,64.80
2018-02-18T04:58:59.581Z,64.90
2018-02-18T05:01:27.803Z,65.40
2018-02-18T05:03:56.812Z,64.50
2018-02-18T05:06:25.056Z,64.50
2018-02-18T05:08:54.058Z,64.90
2018-02-18T05:11:23.078Z,64.80
2018-02-18T05:13:51.341Z,64.70
2018-02-18T05:16:20.459Z,65.00
2018-02-18T05:18:48.723Z,65.80
2018-02-18T05:21:16.937Z,64.90
2018-02-18T05:23:46.091Z,64.80
2018-02-18T05:26:14.332Z,64.60
2018-02-18T05:28:42.588Z,64.40
2018-02-18T05:31:10.809Z,64.30
2018-02-18T05:33:39.020Z,64.20
2018-02-18T05:36:07.249Z,64.10
2018-02-18T05:38:36.252Z,63.90
2018-02-18T05:41:04.547Z,63.90
2018-02-18T05:43:32.836Z,63.70
2018-02-18T05:46:01.051Z,63.40
2018-02-18T05:48:29.362Z,63.30
2018-02-18T05:50:57.577Z,63.00
2018-02-18T05:53:25.830Z,62.80
2018-02-18T05:55:54.056Z,63.00
2018-02-18T05:58:22.293Z,62.80
2018-02-18T06:00:50.548Z,63.40
2018-02-18T06:03:18.829Z,63.00
2018-02-18T06:05:47.054Z,63.70
2018-02-18T06:08:15.381Z,63.10
2018-02-18T06:10:43.664Z,63.20
2018-02-18T06:13:11.883Z,63.20
2018-02-18T06:15:40.204Z,63.70
2018-02-18T06:18:08.434Z,62.50
2018-02-18T06:20:36.651Z,62.30
2018-02-18T06:23:05.788Z,62.50
2018-02-18T06:25:34.021Z,62.40
2018-02-18T06:28:03.007Z,63.10
2018-02-18T06:30:32.017Z,62.30
2018-02-18T06:33:00.290Z,62.30
2018-02-18T06:35:28.545Z,62.40
2018-02-18T06:37:57.558Z,62.40
2018-02-18T06:40:26.550Z,62.20
2018-02-18T06:42:55.538Z,61.90
2018-02-18T06:45:24.592Z,61.60
2018-02-18T06:47:52.822Z,61.40
2018-02-18T06:50:21.137Z,61.00
2018-02-18T06:52:49.358Z,61.60
2018-02-18T06:55:18.365Z,59.70
2018-02-18T06:57:46.612Z,59.60
2018-02-18T07:00:14.827Z,60.00
2018-02-18T07:02:43.100Z,59.90
2018-02-18T07:05:11.328Z,60.10
2018-02-18T07:07:39.557Z,60.40
2018-02-18T07:10:07.837Z,60.20
2018-02-18T07:12:36.046Z,60.20
2018-02-18T07:15:04.281Z,60.20
2018-02-18T07:17:32.521Z,60.20
2018-02-18T07:20:00.732Z,60.30
2018-02-18T07:22:29.006Z,60.00
2018-02-18T07:24:57.270Z,59.80
2018-02-18T07:27:25.523Z,59.20
2018-02-18T07:29:53.807Z,59.40
2018-02-18T07:32:22.790Z,60.20
2018-02-18T07:34:51.156Z,59.70
2018-02-18T07:37:19.438Z,59.70
2018-02-18T07:39:47.639Z,59.60
2018-02-18T07:42:17.503Z,59.40
2018-02-18T07:44:45.709Z,59.40
2018-02-18T07:47:14.037Z,59.40
2018-02-18T07:49:42.301Z,59.40
2018-02-18T07:52:10.592Z,59.40
2018-02-18T07:54:38.813Z,59.50
2018-02-18T07:57:07.093Z,60.20
2018-02-18T07:59:35.324Z,59.40
2018-02-18T08:02:03.578Z,59.60
2018-02-18T08:04:32.605Z,59.70
2018-02-18T08:07:00.824Z,59.00
2018-02-18T08:09:29.852Z,59.10
2018-02-18T08:11:58.155Z,59.70
2018-02-18T08:14:26.386Z,59.30
2018-02-18T08:16:55.381Z,59.10
2018-02-18T08:19:24.355Z,59.10
2018-02-18T08:21:52.579Z,59.10
2018-02-18T08:24:20.872Z,58.50
2018-02-18T08:26:49.210Z,59.00
2018-02-18T08:29:17.446Z,58.50
2018-02-18T08:31:45.764Z,58.30
2018-02-18T08:34:14.071Z,58.50
2018-02-18T08:36:42.302Z,58.40
2018-02-18T08:39:11.326Z,57.90
2018-02-18T08:41:39.566Z,57.90
2018-02-18T08:44:08.572Z,57.80
2018-02-18T08:46:37.569Z,57.60
2018-02-18T08:49:05.888Z,57.50
2018-02-18T08:51:34.144Z,57.70
2018-02-18T08:54:02.432Z,57.60
2018-02-18T08:56:30.700Z,57.30
2018-02-18T08:58:58.896Z,57.10
2018-02-18T09:01:27.173Z,56.80
2018-02-18T09:03:55.430Z,56.60
2018-02-18T09:06:23.649Z,56.40
2018-02-18T09:08:51.936Z,56.20
2018-02-18T09:11:20.142Z,56.20
2018-02-18T09:13:49.151Z,55.80
2018-02-18T09:16:17.386Z,55.70
2018-02-18T09:18:46.410Z,55.40
2018-02-18T09:21:14.627Z,55.40
2018-02-18T09:23:42.851Z,55.00
2018-02-18T09:26:11.099Z,55.20
2018-02-18T09:28:39.322Z,54.70
2018-02-18T09:31:07.529Z,54.60
2018-02-18T09:33:35.780Z,54.70
2018-02-18T09:36:04.053Z,54.70
2018-02-18T09:38:32.273Z,54.20
2018-02-18T09:41:00.592Z,53.90
2018-02-18T09:43:28.806Z,53.20
2018-02-18T09:45:57.035Z,53.20
2018-02-18T09:48:25.329Z,53.20
2018-02-18T09:50:53.546Z,52.00
2018-02-18T09:53:21.765Z,52.50
2018-02-18T09:55:49.968Z,53.20
2018-02-18T09:58:18.496Z,53.20
2018-02-18T10:00:46.836Z,53.40
2018-02-18T10:03:15.140Z,54.00
2018-02-18T10:05:43.461Z,53.30
2018-02-18T10:08:12.104Z,52.80
2018-02-18T10:10:40.516Z,52.10
2018-02-18T10:13:09.683Z,53.20
2018-02-18T10:15:38.059Z,52.60
2018-02-18T10:18:07.368Z,52.10
2018-02-18T10:20:35.982Z,52.10
2018-02-18T10:23:05.184Z,51.80
2018-02-18T10:25:33.594Z,51.80
2018-02-18T10:28:01.818Z,51.50
2018-02-18T10:30:30.870Z,52.20
2018-02-18T10:32:59.095Z,52.20
2018-02-18T10:35:28.079Z,51.80
2018-02-18T10:37:57.074Z,52.00
2018-02-18T10:40:26.092Z,51.80
2018-02-18T10:42:54.356Z,51.80
2018-02-18T10:45:23.347Z,51.00
2018-02-18T10:47:52.352Z,51.30
2018-02-18T10:50:20.701Z,51.20
2018-02-18T10:52:48.906Z,51.30
2018-02-18T10:55:17.194Z,51.40
2018-02-18T10:57:45.468Z,52.00
2018-02-18T11:00:13.698Z,51.30
2018-02-18T11:02:41.935Z,51.30
2018-02-18T11:05:10.157Z,51.30
2018-02-18T11:07:38.361Z,51.30
2018-02-18T11:10:06.632Z,51.30
2018-02-18T11:12:34.935Z,51.10
2018-02-18T11:15:03.235Z,51.10
2018-02-18T11:17:31.714Z,50.70
2018-02-18T11:20:00.092Z,50.90
2018-02-18T11:22:28.498Z,50.80
2018-02-18T11:24:56.878Z,50.80
2018-02-18T11:27:25.481Z,50.00
2018-02-18T11:29:53.814Z,50.00
2018-02-18T11:32:22.766Z,50.40
2018-02-18T11:34:51.073Z,50.30
2018-02-18T11:37:19.317Z,50.60
2018-02-18T11:39:48.340Z,50.30
2018-02-18T11:42:16.615Z,50.30
2018-02-18T11:44:44.880Z,50.50
2018-02-18T11:47:13.112Z,50.70
2018-02-18T11:49:41.395Z,50.30
2018-02-18T11:52:10.423Z,50.60
2018-02-18T11:54:38.693Z,50.40
2018-02-18T11:57:06.913Z,50.70
2018-02-18T11:59:35.761Z,50.30
2018-02-18T12:02:03.974Z,50.50
2018-02-18T12:04:32.217Z,50.20
2018-02-18T12:07:00.547Z,49.90
2018-02-18T12:09:28.889Z,49.80
2018-02-18T12:11:57.077Z,50.00
2018-02-18T12:14:25.370Z,50.30
2018-02-18T12:16:53.695Z,50.50
2018-02-18T12:19:21.903Z,50.50
2018-02-18T12:21:50.231Z,50.60
2018-02-18T12:24:19.206Z,50.60
2018-02-18T12:26:47.475Z,50.60
2018-02-18T12:29:15.777Z,50.60
2018-02-18T12:31:44.745Z,50.20
2018-02-18T12:34:12.989Z,50.10
2018-02-18T12:36:41.225Z,50.00
2018-02-18T12:39:10.238Z,49.60
2018-02-18T12:41:38.521Z,49.50
2018-02-18T12:44:06.718Z,49.80
2018-02-18T12:46:35.064Z,50.10
2018-02-18T12:49:03.340Z,49.60
2018-02-18T12:51:31.576Z,49.10
2018-02-18T12:53:59.813Z,49.50
2018-02-18T12:56:28.039Z,49.90
2018-02-18T12:58:57.054Z,50.00
2018-02-18T13:01:25.349Z,49.90
2018-02-18T13:03:53.613Z,49.90
2018-02-18T13:06:21.843Z,49.70
2018-02-18T13:08:50.123Z,50.00
2018-02-18T13:11:18.382Z,49.60
2018-02-18T13:13:46.680Z,49.90
2018-02-18T13:16:14.919Z,49.70
2018-02-18T13:18:43.251Z,49.60
2018-02-18T13:21:12.275Z,49.90
2018-02-18T13:23:40.503Z,49.90
2018-02-18T13:26:08.818Z,49.80
2018-02-18T13:28:37.046Z,49.70
2018-02-18T13:31:05.251Z,49.60
2018-02-18T13:33:33.497Z,49.80
2018-02-18T13:36:01.810Z,49.60
2018-02-18T13:38:30.802Z,49.60
2018-02-18T13:40:59.949Z,50.00
2018-02-18T13:43:28.288Z,49.90
2018-02-18T13:45:56.506Z,50.00
2018-02-18T13:48:24.843Z,49.70
2018-02-18T13:50:53.069Z,49.80
2018-02-18T13:53:21.393Z,49.20
2018-02-18T13:55:49.673Z,49.70
2018-02-18T13:58:17.966Z,49.50
2018-02-18T14:00:46.209Z,49.80
2018-02-18T14:03:15.241Z,49.40
2018-02-18T14:05:43.498Z,49.40
2018-02-18T14:08:11.735Z,50.30
2018-02-18T14:10:39.957Z,49.70
2018-02-18T14:13:08.222Z,49.80
2018-02-18T14:15:36.432Z,50.00
2018-02-18T14:18:04.753Z,49.90
2018-02-18T14:20:32.987Z,49.80
2018-02-18T14:23:01.229Z,49.40
2018-02-18T14:25:29.458Z,49.70
2018-02-18T14:27:57.783Z,49.60
2018-02-18T14:30:26.041Z,49.90
2018-02-18T14:32:55.121Z,49.90
2018-02-18T14:35:23.307Z,49.90
2018-02-18T14:37:52.353Z,49.80
2018-02-18T14:40:20.622Z,49.80
2018-02-18T14:43:00.657Z,49.60
2018-02-18T14:49:03.376Z,49.00
2018-02-18T14:51:43.430Z,49.20
2018-02-18T14:54:23.802Z,49.20
2018-02-18T14:57:01.985Z,49.40
2018-02-18T14:59:30.229Z,49.30
2018-02-18T15:01:59.259Z,49.10
2018-02-18T15:04:27.506Z,49.00
2018-02-18T15:06:56.514Z,49.20
2018-02-18T15:09:25.511Z,49.40
2018-02-18T15:11:53.796Z,49.40
2018-02-18T15:14:22.014Z,49.50
2018-02-18T15:16:50.337Z,49.60
2018-02-18T15:19:18.580Z,49.70
2018-02-18T15:21:46.785Z,49.50
2018-02-18T15:24:15.789Z,49.70
2018-02-18T15:26:44.014Z,49.70
2018-02-18T15:29:12.341Z,49.50
2018-02-18T15:31:40.618Z,49.20
2018-02-18T15:34:08.853Z,49.20
2018-02-18T15:36:37.066Z,49.00
2018-02-18T15:39:06.063Z,49.00
2018-02-18T15:41:34.329Z,48.90
2018-02-18T15:44:02.542Z,48.90
2018-02-18T15:46:31.615Z,49.00
2018-02-18T15:48:59.841Z,48.90
2018-02-18T15:51:28.041Z,49.00
2018-02-18T15:53:57.180Z,48.80
2018-02-18T15:56:25.427Z,48.70
2018-02-18T15:58:53.655Z,48.70
2018-02-18T16:01:21.876Z,48.70
2018-02-18T16:03:50.901Z,49.10
2018-02-18T16:06:19.159Z,49.10
2018-02-18T16:08:47.386Z,49.00
2018-02-18T16:11:15.662Z,48.70
2018-02-18T16:13:43.853Z,48.60
2018-02-18T16:16:12.106Z,47.40
2018-02-18T16:18:40.427Z,46.90
2018-02-18T16:21:09.497Z,48.30
2018-02-18T16:23:37.727Z,48.20
2018-02-18T16:26:05.987Z,48.40
2018-02-18T16:28:34.237Z,48.30
2018-02-18T16:31:03.239Z,48.20
2018-02-18T16:33:32.247Z,48.30
2018-02-18T16:36:00.542Z,48.30
2018-02-18T16:38:28.797Z,48.30
2018-02-18T16:40:57.761Z,48.00
2018-02-18T16:43:26.748Z,48.30
2018-02-18T16:45:55.001Z,47.50
2018-02-18T16:48:23.211Z,47.50
2018-02-18T16:50:52.196Z,48.50
2018-02-18T16:53:20.507Z,48.20
2018-02-18T16:55:48.798Z,48.20
2018-02-18T16:58:17.058Z,47.80
2018-02-18T17:00:45.273Z,48.10
2018-02-18T17:03:13.485Z,48.20
2018-02-18T17:05:42.487Z,48.30
2018-02-18T17:08:11.618Z,48.40
2018-02-18T17:10:39.875Z,48.40
2018-02-18T17:13:08.165Z,48.30
2018-02-18T17:15:36.447Z,48.40
2018-02-18T17:18:04.678Z,48.30
2018-02-18T17:20:33.709Z,48.60
2018-02-18T17:23:01.994Z,48.50
2018-02-18T17:25:30.262Z,48.70
2018-02-18T17:27:58.525Z,48.80
2018-02-18T17:30:26.741Z,48.70
2018-02-18T17:32:54.988Z,48.70
2018-02-18T17:35:23.278Z,48.70
2018-02-18T17:37:51.561Z,48.50
2018-02-18T17:40:19.921Z,49.30
2018-02-18T17:42:48.950Z,48.50
2018-02-18T17:45:17.194Z,48.50
2018-02-18T17:47:45.447Z,48.60
2018-02-18T17:50:14.455Z,48.50
2018-02-18T17:52:42.749Z,48.50
2018-02-18T17:55:12.521Z,48.60
2018-02-18T17:57:40.867Z,48.60
2018-02-18T18:00:09.320Z,48.60
2018-02-18T18:02:37.601Z,48.60
2018-02-18T18:05:05.885Z,48.50
2018-02-18T18:07:34.137Z,48.90
2018-02-18T18:10:02.419Z,48.80
2018-02-18T18:12:30.733Z,48.80
2018-02-18T18:14:58.956Z,48.60
2018-02-18T18:17:27.249Z,48.60
2018-02-18T18:19:55.457Z,48.60
2018-02-18T18:22:23.703Z,48.40
2018-02-18T18:24:51.973Z,48.60
2018-02-18T18:27:23.493Z,48.40
2018-02-18T18:29:51.692Z,48.40
2018-02-18T18:32:20.949Z,48.30
2018-02-18T18:34:49.573Z,48.20
2018-02-18T18:37:17.816Z,48.00
2018-02-18T18:39:46.084Z,48.30
2018-02-18T18:42:14.304Z,48.40
2018-02-18T18:44:42.645Z,48.50
2018-02-18T18:47:10.831Z,48.40
2018-02-18T18:49:39.136Z,48.30
2018-02-18T18:52:07.353Z,48.10
2018-02-18T18:54:36.721Z,48.30
2018-02-18T18:57:05.205Z,48.10
2018-02-18T18:59:33.445Z,48.50
2018-02-18T19:02:02.449Z,48.60
2018-02-18T19:04:30.691Z,48.50
2018-02-18T19:06:58.916Z,48.60
2018-02-18T19:09:27.133Z,48.80
2018-02-18T19:11:55.396Z,48.70
2018-02-18T19:14:23.653Z,48.70
2018-02-18T19:16:51.884Z,48.50
2018-02-18T19:19:20.112Z,48.50
2018-02-18T19:21:48.380Z,48.50
2018-02-18T19:24:16.626Z,48.40
2018-02-18T19:26:45.642Z,48.50
2018-02-18T19:29:13.878Z,48.40
2018-02-18T19:31:42.253Z,48.60
2018-02-18T19:34:10.574Z,48.60
2018-02-18T19:36:38.873Z,48.80
2018-02-18T19:39:07.122Z,48.80
2018-02-18T19:41:35.320Z,48.80
2018-02-18T19:44:03.545Z,48.80
2018-02-18T19:46:31.851Z,48.10
2018-02-18T19:49:00.098Z,48.50
2018-02-18T19:51:28.368Z,48.40
2018-02-18T19:53:56.682Z,48.70
2018-02-18T19:56:25.023Z,48.60
2018-02-18T19:58:53.242Z,48.70
2018-02-18T20:01:21.482Z,48.60
2018-02-18T20:03:49.905Z,48.50
2018-02-18T20:06:18.185Z,48.70
2018-02-18T20:08:46.476Z,48.70
2018-02-18T20:11:14.803Z,48.90
2018-02-18T20:13:43.810Z,48.90
2018-02-18T20:16:12.099Z,48.90
2018-02-18T20:18:40.345Z,49.00
2018-02-18T20:21:09.338Z,49.20
2018-02-18T20:23:37.570Z,49.10
2018-02-18T20:26:05.812Z,49.10
2018-02-18T20:28:34.091Z,49.00
2018-02-18T20:31:02.346Z,49.30
2018-02-18T20:33:30.646Z,49.20
2018-02-18T20:35:58.889Z,49.00
2018-02-18T20:38:27.146Z,49.10
2018-02-18T20:40:55.390Z,49.30
2018-02-18T20:43:23.604Z,49.40
2018-02-18T20:45:51.855Z,49.40
2018-02-18T20:48:20.096Z,49.40
2018-02-18T20:50:48.359Z,49.50
2018-02-18T20:53:16.612Z,49.50
2018-02-18T20:55:44.843Z,49.60
2018-02-18T20:58:13.090Z,49.50
2018-02-18T21:00:42.096Z,49.10
2018-02-18T21:03:11.068Z,49.20
2018-02-18T21:05:39.320Z,49.10
2018-02-18T21:08:07.576Z,49.10
2018-02-18T21:10:35.805Z,49.00
2018-02-18T21:13:04.913Z,48.80
2018-02-18T21:15:33.209Z,48.80
2018-02-18T21:18:01.518Z,49.10
2018-02-18T21:20:29.867Z,49.10
2018-02-18T21:22:58.123Z,49.20
2018-02-18T21:25:26.339Z,49.80
2018-02-18T21:27:54.573Z,49.30
2018-02-18T21:30:22.816Z,49.30
2018-02-18T21:32:51.041Z,49.20
2018-02-18T21:35:19.282Z,49.30
2018-02-18T21:37:47.490Z,49.30
2018-02-18T21:40:15.718Z,49.70
2018-02-18T21:42:44.036Z,49.60
2018-02-18T21:45:12.261Z,49.80
2018-02-18T21:47:40.495Z,49.90
2018-02-18T21:50:08.731Z,50.00
2018-02-18T21:52:36.957Z,49.90
2018-02-18T21:55:05.174Z,50.10
2018-02-18T21:57:33.437Z,50.10
2018-02-18T22:00:01.760Z,50.10
2018-02-18T22:02:30.112Z,50.00
2018-02-18T22:04:58.336Z,49.90
2018-02-18T22:07:26.611Z,50.00
2018-02-18T22:09:55.563Z,50.30
2018-02-18T22:12:24.574Z,50.30
2018-02-18T22:14:52.848Z,50.30
2018-02-18T22:17:21.160Z,50.30
2018-02-18T22:19:49.414Z,50.30
2018-02-18T22:22:17.656Z,50.30
2018-02-18T22:24:46.662Z,50.90
2018-02-18T22:27:15.682Z,50.50
2018-02-18T22:29:44.673Z,51.20
2018-02-18T22:32:12.956Z,50.40
2018-02-18T22:34:41.159Z,50.70
2018-02-18T22:37:09.402Z,50.70
2018-02-18T22:39:37.694Z,50.70
2018-02-18T22:42:05.912Z,50.60
2018-02-18T22:44:34.162Z,50.90
2018-02-18T22:47:02.407Z,50.80
2018-02-18T22:49:30.687Z,50.90
2018-02-18T22:51:58.915Z,50.90
2018-02-18T22:54:27.152Z,50.70
2018-02-18T22:56:55.406Z,50.60
2018-02-18T22:59:23.668Z,50.60
2018-02-18T23:01:52.655Z,50.70
2018-02-18T23:04:21.690Z,50.80
2018-02-18T23:06:49.949Z,50.70
2018-02-18T23:09:18.157Z,50.70
2018-02-18T23:11:46.410Z,50.60
2018-02-18T23:14:14.650Z,50.60
2018-02-18T23:16:43.643Z,50.60
2018-02-18T23:19:12.624Z,50.70
2018-02-18T23:21:40.940Z,50.60
2018-02-18T23:24:09.155Z,50.80
2018-02-18T23:26:37.477Z,51.00
2018-02-18T23:29:06.491Z,51.30
2018-02-18T23:31:34.735Z,51.20
2018-02-18T23:34:03.738Z,51.70
2018-02-18T23:36:32.750Z,51.90
2018-02-18T23:39:01.048Z,51.90
2018-02-18T23:41:29.282Z,52.30
2018-02-18T23:43:58.313Z,52.50
2018-02-18T23:46:26.568Z,52.40
2018-02-18T23:48:54.812Z,52.50
2018-02-18T23:51:23.196Z,52.20
2018-02-18T23:53:51.500Z,52.10
2018-02-18T23:56:19.755Z,52.20
2018-02-18T23:58:48.009Z,52.20
